createdAt,value
2019-06-09T00:01:43.442Z,73.41
2019-06-09T00:04:11.465Z,73.42
2019-06-09T00:06:37.409Z,73.95
2019-06-09T00:09:05.119Z,74.22
2019-06-09T00:11:30.959Z,73.92
2019-06-09T00:13:57.727Z,74.14
2019-06-09T00:16:27.151Z,74.46
2019-06-09T00:18:53.462Z,74.56
2019-06-09T00:21:19.274Z,75.00
2019-06-09T00:23:47.713Z,74.80
2019-06-09T00:26:13.086Z,74.89
2019-06-09T00:28:39.257Z,75.33
2019-06-09T00:31:08.738Z,75.22
2019-06-09T00:33:37.118Z,75.46
2019-06-09T00:36:02.586Z,75.68
2019-06-09T00:38:28.390Z,76.02
2019-06-09T00:40:54.183Z,75.98
2019-06-09T00:43:23.225Z,76.19
2019-06-09T00:45:49.047Z,76.35
2019-06-09T00:48:18.110Z,76.50
2019-06-09T00:50:43.883Z,76.33
2019-06-09T00:53:13.994Z,76.25
2019-06-09T00:55:40.406Z,75.97
2019-06-09T00:58:10.712Z,76.08
2019-06-09T01:00:34.323Z,76.40
2019-06-09T01:03:00.827Z,76.26
2019-06-09T01:05:27.950Z,76.01
2019-06-09T01:07:54.229Z,76.13
2019-06-09T01:10:21.146Z,76.45
2019-06-09T01:12:47.945Z,76.46
2019-06-09T01:15:15.087Z,76.86
2019-06-09T01:17:42.298Z,76.94
2019-06-09T01:20:11.131Z,76.56
2019-06-09T01:22:37.491Z,75.93
2019-06-09T01:25:09.226Z,76.36
2019-06-09T01:27:37.268Z,76.55
2019-06-09T01:30:13.779Z,76.84
2019-06-09T01:32:38.361Z,77.59
2019-06-09T01:35:04.418Z,77.69
2019-06-09T01:37:30.237Z,77.94
2019-06-09T01:39:57.785Z,77.80
2019-06-09T01:42:23.620Z,78.04
2019-06-09T01:45:07.399Z,77.75
2019-06-09T01:47:20.477Z,77.82
2019-06-09T01:49:47.791Z,78.30
2019-06-09T01:52:14.071Z,78.27
2019-06-09T01:54:39.809Z,78.15
2019-06-09T01:57:07.979Z,78.11
2019-06-09T01:59:34.290Z,77.83
2019-06-09T02:02:00.441Z,78.16
2019-06-09T02:04:27.462Z,78.30
2019-06-09T02:06:54.327Z,78.11
2019-06-09T02:09:22.090Z,78.36
2019-06-09T02:11:48.358Z,78.45
2019-06-09T02:14:14.595Z,78.42
2019-06-09T02:16:40.411Z,78.27
2019-06-09T02:19:08.284Z,78.64
2019-06-09T02:21:34.923Z,78.44
2019-06-09T02:24:00.972Z,78.64
2019-06-09T02:26:27.937Z,78.88
2019-06-09T02:28:53.820Z,78.51
2019-06-09T02:31:26.415Z,78.86
2019-06-09T02:33:54.507Z,78.89
2019-06-09T02:36:26.622Z,79.19
2019-06-09T02:38:44.155Z,79.48
2019-06-09T02:41:13.219Z,79.40
2019-06-09T02:43:38.445Z,79.18
2019-06-09T02:46:35.920Z,79.65
2019-06-09T02:49:03.113Z,79.31
2019-06-09T02:51:36.007Z,79.45
2019-06-09T02:53:57.147Z,79.20
2019-06-09T02:56:27.205Z,79.33
2019-06-09T02:58:51.795Z,79.47
2019-06-09T03:01:17.822Z,79.24
2019-06-09T03:04:00.236Z,79.37
2019-06-09T03:06:12.518Z,79.36
2019-06-09T03:08:43.533Z,79.59
2019-06-09T03:11:06.755Z,79.76
2019-06-09T03:13:39.728Z,80.11
2019-06-09T03:16:02.877Z,80.11
2019-06-09T03:18:35.131Z,80.58
2019-06-09T03:20:55.995Z,79.72
2019-06-09T03:23:24.743Z,79.40
2019-06-09T03:25:52.453Z,79.72
2019-06-09T03:28:17.269Z,80.55
2019-06-09T03:31:03.503Z,80.33
2019-06-09T03:34:07.530Z,80.11
2019-06-09T03:36:21.938Z,79.95
2019-06-09T03:38:18.019Z,79.99
2019-06-09T03:40:39.429Z,80.07
2019-06-09T03:43:03.128Z,80.14
2019-06-09T03:45:36.631Z,79.91
2019-06-09T03:47:57.563Z,80.18
2019-06-09T03:50:27.834Z,80.50
2019-06-09T03:52:52.392Z,80.41
2019-06-09T03:55:20.827Z,80.48
2019-06-09T03:57:46.424Z,80.54
2019-06-09T04:00:15.284Z,80.45
2019-06-09T04:02:44.632Z,80.11
2019-06-09T04:05:08.216Z,80.31
2019-06-09T04:07:39.389Z,81.06
2019-06-09T04:10:04.258Z,81.23
2019-06-09T04:12:38.943Z,81.11
2019-06-09T04:14:58.058Z,80.98
2019-06-09T04:17:24.520Z,81.21
2019-06-09T04:19:52.342Z,80.98
2019-06-09T04:22:18.199Z,80.92
2019-06-09T04:24:44.569Z,80.80
2019-06-09T04:27:12.366Z,79.74
2019-06-09T04:29:39.511Z,79.84
2019-06-09T04:32:06.277Z,80.07
2019-06-09T04:34:38.375Z,80.13
2019-06-09T04:37:03.177Z,79.99
2019-06-09T04:39:29.738Z,79.27
2019-06-09T04:41:55.702Z,78.17
2019-06-09T04:44:22.527Z,78.19
2019-06-09T04:46:51.877Z,78.63
2019-06-09T04:49:16.421Z,79.05
2019-06-09T04:51:44.504Z,79.69
2019-06-09T04:54:12.538Z,80.09
2019-06-09T04:56:42.087Z,80.27
2019-06-09T04:59:05.421Z,79.56
2019-06-09T05:01:39.899Z,79.16
2019-06-09T05:04:02.051Z,78.32
2019-06-09T05:06:41.383Z,78.38
2019-06-09T05:08:54.670Z,78.92
2019-06-09T05:11:23.286Z,78.62
2019-06-09T05:13:48.724Z,78.06
2019-06-09T05:16:14.526Z,77.76
2019-06-09T05:18:50.395Z,77.77
2019-06-09T05:21:11.600Z,78.00
2019-06-09T05:23:48.698Z,78.08
2019-06-09T05:26:12.369Z,77.17
2019-06-09T05:28:46.529Z,76.78
2019-06-09T05:31:06.342Z,76.16
2019-06-09T05:33:35.850Z,76.10
2019-06-09T05:36:03.003Z,76.21
2019-06-09T05:38:33.783Z,76.18
2019-06-09T05:41:02.252Z,75.79
2019-06-09T05:43:34.028Z,76.08
2019-06-09T05:45:58.615Z,75.72
2019-06-09T05:48:24.777Z,75.73
2019-06-09T05:50:50.860Z,75.62
2019-06-09T05:53:18.932Z,74.69
2019-06-09T05:55:44.744Z,74.31
2019-06-09T05:58:17.912Z,73.03
2019-06-09T06:00:45.570Z,72.61
2019-06-09T06:03:12.027Z,72.96
2019-06-09T06:05:37.851Z,72.55
2019-06-09T06:08:03.671Z,71.95
2019-06-09T06:10:31.658Z,70.67
2019-06-09T06:12:57.221Z,71.24
2019-06-09T06:15:23.369Z,71.12
2019-06-09T06:17:50.964Z,71.49
2019-06-09T06:20:17.008Z,69.44
2019-06-09T06:22:44.049Z,68.66
2019-06-09T06:25:13.763Z,65.95
2019-06-09T06:27:42.158Z,63.44
2019-06-09T06:30:07.841Z,63.29
2019-06-09T06:32:34.158Z,62.05
2019-06-09T06:35:01.503Z,61.68
2019-06-09T06:37:36.121Z,61.60
2019-06-09T06:39:55.266Z,59.44
2019-06-09T06:42:21.242Z,59.46
2019-06-09T06:44:52.174Z,58.63
2019-06-09T06:47:17.867Z,58.80
2019-06-09T06:49:44.242Z,58.13
2019-06-09T06:52:12.500Z,59.36
2019-06-09T06:54:38.957Z,58.26
2019-06-09T06:57:04.835Z,56.30
2019-06-09T06:59:31.688Z,55.20
2019-06-09T07:01:57.977Z,55.29
2019-06-09T07:04:24.084Z,54.24
2019-06-09T07:06:53.002Z,54.44
2019-06-09T07:09:21.368Z,54.44
2019-06-09T07:11:48.011Z,55.96
2019-06-09T07:14:14.619Z,53.41
2019-06-09T07:16:42.408Z,54.51
2019-06-09T07:19:08.459Z,52.85
2019-06-09T07:21:34.277Z,52.85
2019-06-09T07:24:00.585Z,53.61
2019-06-09T07:26:26.467Z,52.92
2019-06-09T07:28:54.401Z,52.61
2019-06-09T07:31:20.984Z,51.31
2019-06-09T07:33:49.270Z,50.73
2019-06-09T07:36:14.634Z,52.33
2019-06-09T07:38:45.165Z,51.36
2019-06-09T07:41:10.870Z,50.53
2019-06-09T07:43:37.103Z,52.32
2019-06-09T07:46:03.323Z,49.89
2019-06-09T07:48:31.833Z,49.93
2019-06-09T07:50:58.041Z,49.27
2019-06-09T07:53:26.928Z,49.45
2019-06-09T07:55:54.228Z,51.35
2019-06-09T07:58:21.689Z,49.51
2019-06-09T08:00:47.880Z,50.44
2019-06-09T08:03:13.681Z,49.98
2019-06-09T08:05:41.028Z,49.42
2019-06-09T08:08:07.487Z,52.17
2019-06-09T08:10:33.297Z,52.85
2019-06-09T08:13:01.516Z,53.25
2019-06-09T08:15:26.886Z,52.09
2019-06-09T08:17:53.516Z,52.68
2019-06-09T08:20:22.165Z,52.52
2019-06-09T08:22:48.551Z,50.66
2019-06-09T08:25:17.433Z,50.59
2019-06-09T08:27:45.489Z,49.29
2019-06-09T08:30:13.195Z,49.14
2019-06-09T08:32:42.067Z,49.13
2019-06-09T08:35:21.279Z,50.05
2019-06-09T08:37:37.208Z,47.17
2019-06-09T08:40:05.304Z,47.67
2019-06-09T08:42:32.518Z,48.93
2019-06-09T08:44:58.614Z,48.76
2019-06-09T08:47:24.414Z,49.21
2019-06-09T08:49:52.758Z,47.69
2019-06-09T08:52:18.237Z,48.44
2019-06-09T08:54:44.710Z,49.20
2019-06-09T08:57:11.685Z,49.47
2019-06-09T08:59:37.502Z,50.06
2019-06-09T09:02:03.324Z,49.88
2019-06-09T09:04:31.197Z,50.49
2019-06-09T09:06:56.814Z,47.16
2019-06-09T09:09:29.555Z,49.56
2019-06-09T09:11:53.122Z,48.76
2019-06-09T09:14:18.339Z,48.51
2019-06-09T09:16:44.648Z,46.89
2019-06-09T09:19:11.244Z,49.25
2019-06-09T09:21:37.099Z,46.95
2019-06-09T09:24:41.636Z,49.64
2019-06-09T09:26:31.670Z,46.82
2019-06-09T09:28:57.582Z,46.93
2019-06-09T09:31:23.656Z,47.58
2019-06-09T09:33:54.739Z,46.70
2019-06-09T09:36:20.999Z,48.34
2019-06-09T09:38:47.801Z,47.72
2019-06-09T09:41:13.752Z,45.38
2019-06-09T09:43:42.802Z,47.65
2019-06-09T09:46:10.960Z,46.91
2019-06-09T09:48:36.624Z,46.06
2019-06-09T09:51:02.749Z,47.12
2019-06-09T09:53:28.836Z,46.05
2019-06-09T09:55:56.217Z,44.16
2019-06-09T09:58:22.617Z,46.50
2019-06-09T10:00:48.974Z,47.36
2019-06-09T10:03:14.900Z,48.31
2019-06-09T10:05:43.819Z,48.40
2019-06-09T10:08:11.642Z,47.42
2019-06-09T10:10:37.307Z,46.03
2019-06-09T10:13:03.278Z,45.06
2019-06-09T10:15:32.085Z,43.41
2019-06-09T10:17:59.578Z,44.81
2019-06-09T10:20:27.487Z,46.37
2019-06-09T10:22:56.733Z,46.15
2019-06-09T10:25:23.357Z,44.11
2019-06-09T10:27:52.553Z,45.07
2019-06-09T10:30:16.925Z,45.77
2019-06-09T10:32:43.104Z,44.92
2019-06-09T10:35:10.977Z,45.54
2019-06-09T10:37:36.870Z,46.08
2019-06-09T10:40:16.652Z,44.90
2019-06-09T10:42:32.531Z,46.00
2019-06-09T10:45:00.499Z,47.06
2019-06-09T10:47:26.041Z,45.73
2019-06-09T10:49:52.903Z,45.51
2019-06-09T10:52:21.029Z,45.15
2019-06-09T10:54:47.243Z,44.10
2019-06-09T10:57:13.432Z,45.50
2019-06-09T10:59:40.954Z,44.92
2019-06-09T11:02:06.840Z,44.54
2019-06-09T11:04:32.636Z,44.92
2019-06-09T11:07:00.299Z,46.04
2019-06-09T11:09:26.164Z,48.20
2019-06-09T11:11:52.622Z,47.91
2019-06-09T11:14:20.960Z,48.12
2019-06-09T11:16:46.603Z,46.74
2019-06-09T11:19:13.893Z,47.27
2019-06-09T11:21:41.005Z,46.29
2019-06-09T11:24:07.389Z,47.21
2019-06-09T11:26:33.410Z,46.57
2019-06-09T11:29:03.965Z,43.67
2019-06-09T11:31:31.386Z,45.83
2019-06-09T11:33:58.733Z,45.91
2019-06-09T11:36:25.224Z,46.87
2019-06-09T11:38:54.052Z,48.19
2019-06-09T11:41:21.537Z,47.54
2019-06-09T11:43:47.430Z,49.17
2019-06-09T11:46:13.250Z,49.35
2019-06-09T11:48:41.288Z,47.15
2019-06-09T11:51:07.077Z,48.51
2019-06-09T11:53:32.863Z,48.52
2019-06-09T11:55:59.868Z,46.15
2019-06-09T11:58:29.299Z,47.30
2019-06-09T12:00:55.805Z,44.43
2019-06-09T12:03:22.285Z,48.24
2019-06-09T12:05:48.183Z,49.24
2019-06-09T12:08:14.000Z,49.53
2019-06-09T12:10:51.263Z,49.30
2019-06-09T12:13:11.514Z,47.74
2019-06-09T12:15:37.444Z,48.62
2019-06-09T12:18:05.232Z,47.04
2019-06-09T12:20:31.369Z,46.09
2019-06-09T12:22:58.563Z,45.45
2019-06-09T12:25:25.029Z,45.24
2019-06-09T12:27:51.874Z,47.37
2019-06-09T12:30:20.800Z,48.08
2019-06-09T12:32:46.962Z,47.76
2019-06-09T12:35:13.878Z,48.46
2019-06-09T12:37:41.435Z,47.31
2019-06-09T12:40:08.637Z,48.50
2019-06-09T12:42:35.539Z,48.63
2019-06-09T12:45:05.015Z,47.66
2019-06-09T12:47:31.287Z,48.22
2019-06-09T12:49:57.408Z,47.97
2019-06-09T12:52:23.229Z,48.54
2019-06-09T12:54:49.345Z,48.85
2019-06-09T12:57:15.099Z,49.08
2019-06-09T12:59:41.437Z,49.73
2019-06-09T13:02:07.824Z,49.56
2019-06-09T13:04:34.959Z,50.33
2019-06-09T13:07:02.587Z,51.31
2019-06-09T13:09:30.780Z,50.70
2019-06-09T13:11:56.748Z,51.71
2019-06-09T13:14:25.662Z,52.06
2019-06-09T13:16:51.787Z,52.30
2019-06-09T13:19:21.766Z,52.48
2019-06-09T13:21:46.957Z,53.40
2019-06-09T13:24:13.077Z,52.65
2019-06-09T13:26:40.917Z,53.27
2019-06-09T13:29:09.706Z,52.84
2019-06-09T13:31:35.784Z,52.85
2019-06-09T13:34:03.459Z,52.57
2019-06-09T13:36:31.157Z,53.28
2019-06-09T13:38:57.060Z,53.68
2019-06-09T13:41:22.849Z,54.69
2019-06-09T13:43:52.754Z,54.22
2019-06-09T13:46:19.010Z,54.90
2019-06-09T13:48:44.462Z,55.42
2019-06-09T13:51:11.375Z,56.27
2019-06-09T13:53:38.231Z,56.84
2019-06-09T13:56:05.109Z,57.36
2019-06-09T13:58:32.071Z,57.69
2019-06-09T14:00:57.993Z,58.61
2019-06-09T14:03:23.802Z,58.66
2019-06-09T14:05:54.354Z,58.03
2019-06-09T14:08:21.273Z,56.61
2019-06-09T14:10:47.433Z,57.06
2019-06-09T14:13:14.878Z,56.67
2019-06-09T14:15:41.585Z,57.69
2019-06-09T14:18:07.675Z,57.79
2019-06-09T14:20:33.701Z,58.18
2019-06-09T14:23:01.236Z,59.07
2019-06-09T14:25:27.312Z,58.24
2019-06-09T14:27:55.865Z,58.35
2019-06-09T14:30:22.824Z,58.72
2019-06-09T14:32:51.297Z,58.37
2019-06-09T14:35:17.882Z,58.52
2019-06-09T14:37:44.658Z,59.10
2019-06-09T14:40:16.709Z,60.41
2019-06-09T14:42:44.204Z,60.41
2019-06-09T14:45:15.795Z,61.11
2019-06-09T14:47:38.820Z,60.55
2019-06-09T14:50:06.132Z,62.25
2019-06-09T14:52:31.961Z,61.83
2019-06-09T14:54:58.042Z,62.54
2019-06-09T14:57:24.096Z,63.19
2019-06-09T14:59:51.223Z,63.16
2019-06-09T15:02:17.673Z,63.22
2019-06-09T15:04:43.798Z,63.46
2019-06-09T15:07:09.894Z,63.88
2019-06-09T15:09:35.688Z,63.79
2019-06-09T15:12:01.758Z,64.12
2019-06-09T15:14:30.566Z,63.70
2019-06-09T15:16:56.660Z,63.94
2019-06-09T15:19:25.444Z,65.17
2019-06-09T15:21:51.319Z,66.23
2019-06-09T15:24:18.233Z,67.36
2019-06-09T15:26:44.847Z,68.19
2019-06-09T15:29:11.932Z,68.53
2019-06-09T15:31:37.871Z,69.59
2019-06-09T15:34:03.890Z,69.76
2019-06-09T15:36:31.674Z,71.11
2019-06-09T15:38:57.612Z,70.77
2019-06-09T15:41:26.157Z,71.24
2019-06-09T15:43:53.486Z,70.75
2019-06-09T15:46:22.091Z,70.75
2019-06-09T15:48:47.220Z,70.73
2019-06-09T15:51:16.123Z,70.27
2019-06-09T15:53:42.264Z,70.70
2019-06-09T15:56:11.072Z,69.96
2019-06-09T15:58:37.001Z,69.68
2019-06-09T16:01:02.806Z,70.27
2019-06-09T16:03:31.331Z,69.40
2019-06-09T16:05:57.202Z,69.63
2019-06-09T16:08:25.500Z,69.78
2019-06-09T16:10:51.420Z,69.20
2019-06-09T16:13:21.562Z,67.89
2019-06-09T16:15:44.923Z,68.14
2019-06-09T16:18:10.748Z,68.40
2019-06-09T16:20:36.527Z,68.96
2019-06-09T16:23:05.122Z,69.32
2019-06-09T16:25:31.343Z,69.19
2019-06-09T16:28:01.673Z,69.81
2019-06-09T16:30:27.652Z,70.15
2019-06-09T16:32:54.528Z,71.37
2019-06-09T16:35:20.903Z,71.71
2019-06-09T16:37:46.671Z,72.04
2019-06-09T16:40:12.663Z,72.69
2019-06-09T16:42:38.484Z,73.18
2019-06-09T16:45:07.405Z,74.24
2019-06-09T16:47:33.521Z,74.57
2019-06-09T16:50:04.765Z,75.08
2019-06-09T16:52:33.945Z,75.71
2019-06-09T16:55:00.644Z,76.04
2019-06-09T16:57:27.228Z,77.02
2019-06-09T16:59:53.760Z,77.02
2019-06-09T17:02:22.771Z,78.04
2019-06-09T17:04:47.278Z,78.94
2019-06-09T17:07:32.782Z,79.24
2019-06-09T17:09:58.682Z,79.94
2019-06-09T17:12:25.184Z,80.59
2019-06-09T17:14:51.269Z,80.75
2019-06-09T17:17:17.104Z,80.40
2019-06-09T17:19:48.052Z,80.40
2019-06-09T17:22:13.249Z,80.08
2019-06-09T17:24:41.552Z,79.85
2019-06-09T17:27:07.375Z,80.23
2019-06-09T17:29:33.943Z,80.42
2019-06-09T17:32:01.056Z,80.30
2019-06-09T17:34:28.086Z,80.58
2019-06-09T17:36:53.948Z,80.19
2019-06-09T17:39:22.342Z,80.62
2019-06-09T17:41:47.480Z,80.89
2019-06-09T17:44:15.569Z,80.59
2019-06-09T17:46:41.533Z,80.56
2019-06-09T17:49:07.352Z,81.02
2019-06-09T17:51:35.795Z,81.02
2019-06-09T17:54:00.884Z,80.75
2019-06-09T17:56:26.672Z,81.26
2019-06-09T17:58:52.770Z,81.17
2019-06-09T18:01:20.681Z,81.23
2019-06-09T18:03:46.570Z,81.67
2019-06-09T18:06:13.873Z,81.63
2019-06-09T18:08:41.115Z,81.74
2019-06-09T18:11:07.216Z,80.64
2019-06-09T18:13:35.496Z,80.87
2019-06-09T18:16:04.062Z,80.62
2019-06-09T18:18:31.604Z,80.93
2019-06-09T18:20:56.746Z,80.93
2019-06-09T18:23:22.544Z,80.70
2019-06-09T18:25:48.358Z,80.69
2019-06-09T18:28:14.466Z,80.65
2019-06-09T18:30:53.189Z,80.95
2019-06-09T18:33:11.295Z,80.95
2019-06-09T18:35:37.819Z,81.30
2019-06-09T18:38:05.154Z,81.50
2019-06-09T18:40:35.485Z,81.31
2019-06-09T18:43:01.800Z,81.21
2019-06-09T18:45:36.776Z,81.67
2019-06-09T18:48:03.701Z,81.92
2019-06-09T18:50:29.697Z,82.36
2019-06-09T18:52:55.809Z,82.23
2019-06-09T18:55:21.615Z,82.18
2019-06-09T18:57:47.441Z,82.10
2019-06-09T19:00:13.627Z,81.77
2019-06-09T19:02:42.242Z,81.74
2019-06-09T19:05:07.519Z,81.67
2019-06-09T19:07:35.242Z,81.65
2019-06-09T19:10:01.019Z,81.63
2019-06-09T19:12:27.098Z,81.34
2019-06-09T19:15:08.202Z,81.59
2019-06-09T19:17:21.824Z,81.59
2019-06-09T19:19:47.980Z,82.28
2019-06-09T19:22:13.766Z,82.69
2019-06-09T19:24:39.581Z,83.03
2019-06-09T19:27:05.365Z,83.17
2019-06-09T19:29:32.289Z,83.09
2019-06-09T19:31:58.887Z,83.68
2019-06-09T19:34:24.952Z,83.96
2019-06-09T19:36:50.764Z,84.52
2019-06-09T19:39:16.574Z,84.68
2019-06-09T19:41:45.710Z,85.03
2019-06-09T19:44:12.145Z,84.93
2019-06-09T19:46:41.204Z,85.21
2019-06-09T19:49:06.077Z,85.72
2019-06-09T19:51:32.161Z,85.94
2019-06-09T19:53:57.964Z,86.25
2019-06-09T19:56:23.800Z,86.51
2019-06-09T19:58:50.911Z,87.02
2019-06-09T20:01:17.021Z,87.52
2019-06-09T20:03:44.675Z,87.95
2019-06-09T20:06:10.912Z,89.02
2019-06-09T20:08:37.038Z,89.62
2019-06-09T20:11:03.806Z,90.35
2019-06-09T20:13:31.107Z,90.63
2019-06-09T20:16:01.226Z,90.63
2019-06-09T20:18:27.189Z,90.79
2019-06-09T20:20:53.292Z,91.51
2019-06-09T20:23:21.888Z,92.76
2019-06-09T20:25:48.428Z,93.85
2019-06-09T20:28:14.282Z,93.91
2019-06-09T20:30:41.518Z,93.40
2019-06-09T20:33:08.089Z,93.96
2019-06-09T20:35:33.874Z,93.84
2019-06-09T20:38:01.454Z,94.02
2019-06-09T20:40:35.041Z,93.76
2019-06-09T20:42:55.157Z,95.03
2019-06-09T20:45:21.967Z,95.60
2019-06-09T20:47:48.410Z,97.00
2019-06-09T20:50:15.470Z,97.28
2019-06-09T20:52:43.515Z,97.88
2019-06-09T20:55:10.692Z,97.02
2019-06-09T20:57:36.544Z,97.87
2019-06-09T21:00:04.488Z,97.07
2019-06-09T21:02:31.262Z,97.15
2019-06-09T21:04:57.134Z,97.22
2019-06-09T21:07:23.053Z,97.38
2019-06-09T21:09:50.704Z,98.31
2019-06-09T21:12:16.635Z,98.05
2019-06-09T21:14:43.485Z,97.74
2019-06-09T21:17:10.882Z,97.89
2019-06-09T21:19:36.794Z,98.36
2019-06-09T21:22:02.720Z,97.92
2019-06-09T21:24:30.547Z,98.43
2019-06-09T21:26:57.704Z,98.71
2019-06-09T21:29:23.808Z,99.28
2019-06-09T21:31:52.687Z,99.53
2019-06-09T21:34:17.355Z,99.31
2019-06-09T21:36:45.090Z,99.88
2019-06-09T21:39:11.209Z,100.00
2019-06-09T21:41:37.096Z,100.00
2019-06-09T21:44:03.830Z,100.00
2019-06-09T21:46:35.702Z,100.00
2019-06-09T21:49:02.235Z,100.00
2019-06-09T21:51:26.500Z,100.00
2019-06-09T21:53:54.014Z,100.00
2019-06-09T21:56:21.529Z,100.00
2019-06-09T21:58:47.448Z,100.00
2019-06-09T22:01:13.553Z,100.00
2019-06-09T22:03:43.290Z,100.00
2019-06-09T22:06:11.562Z,100.00
2019-06-09T22:08:36.794Z,100.00
2019-06-09T22:11:02.728Z,100.00
2019-06-09T22:13:28.502Z,100.00
2019-06-09T22:15:56.265Z,100.00
2019-06-09T22:18:22.261Z,100.00
2019-06-09T22:20:53.036Z,100.00
2019-06-09T22:23:17.027Z,100.00
2019-06-09T22:25:44.022Z,100.00
2019-06-09T22:28:11.834Z,100.00
2019-06-09T22:30:41.994Z,100.00
2019-06-09T22:33:07.788Z,100.00
2019-06-09T22:35:33.865Z,99.98
2019-06-09T22:38:01.690Z,99.79
2019-06-09T22:40:27.605Z,99.26
2019-06-09T22:42:54.474Z,97.04
2019-06-09T22:45:21.530Z,96.96
2019-06-09T22:47:53.326Z,98.74
2019-06-09T22:50:15.468Z,100.00
2019-06-09T22:52:41.456Z,100.00
2019-06-09T22:55:08.140Z,100.00
2019-06-09T22:57:33.983Z,100.00
2019-06-09T23:00:01.333Z,100.00
2019-06-09T23:02:32.148Z,100.00
2019-06-09T23:04:57.684Z,100.00
2019-06-09T23:07:23.861Z,100.00
2019-06-09T23:09:52.242Z,100.00
2019-06-09T23:12:20.552Z,100.00
2019-06-09T23:14:46.433Z,100.00
2019-06-09T23:17:21.850Z,100.00
2019-06-09T23:19:41.820Z,100.00
2019-06-09T23:22:07.927Z,100.00
2019-06-09T23:24:34.038Z,100.00
2019-06-09T23:27:02.492Z,100.00
2019-06-09T23:29:27.816Z,100.00
2019-06-09T23:31:54.244Z,100.00
2019-06-09T23:34:21.388Z,100.00
2019-06-09T23:36:47.615Z,99.65
2019-06-09T23:39:15.002Z,99.69
2019-06-09T23:41:40.813Z,100.00
2019-06-09T23:44:11.758Z,100.00
2019-06-09T23:46:37.073Z,100.00
2019-06-09T23:49:04.758Z,100.00
2019-06-09T23:51:31.020Z,100.00
2019-06-09T23:54:01.670Z,100.00
2019-06-09T23:56:27.578Z,100.00
2019-06-09T23:58:54.953Z,100.00
